AMQ7465 HEGN-EPKT
Flight info
| Callsign | AMQ7465 |
|---|---|
| Flight time | N/A |
| Altitude | 34000 |
| Route | BOTIX1B BOTIX V608 NABED T55 KUNKI L321 REXUM M872 SOBAX DCT NOGLI/N0457F360 L551 ANTAR UN133 ATFIR DCT LOMOS DCT NARKA DCT KEKED DCT LENOV |
| Aircraft | A320/M-SDE3FGHIRWY/LB1 |
Departure
| Time | 2026-04-27 14:18 |
|---|---|
| Airport | Hurghada International Airport (HEGN) |
Arrival
| Time | N/A |
|---|---|
| Airport | Katowice Wojciech Korfanty International Airport (EPKT) |
| Time | Latitude | Longitude | Altitude | Speed | Heading |
|---|---|---|---|---|---|
| 2026-04-27 14:13 | 27.17510 | 33.80372 | 53 ft | 19 kts | 166° |
| 2026-04-27 14:13 | 27.17401 | 33.80385 | 51 ft | 7 kts | 234° |
| 2026-04-27 14:13 | 27.17410 | 33.80352 | 51 ft | 10 kts | 290° |
| 2026-04-27 14:13 | 27.17407 | 33.80238 | 52 ft | 17 kts | 258° |
| 2026-04-27 14:14 | 27.17377 | 33.80106 | 55 ft | 18 kts | 252° |
| 2026-04-27 14:14 | 27.17337 | 33.79967 | 55 ft | 19 kts | 254° |
| 2026-04-27 14:14 | 27.17305 | 33.79832 | 68 ft | 16 kts | 255° |
| 2026-04-27 14:14 | 27.17279 | 33.79699 | 86 ft | 18 kts | 257° |
| 2026-04-27 14:15 | 27.17244 | 33.79558 | 99 ft | 20 kts | 254° |
| 2026-04-27 14:15 | 27.17140 | 33.79518 | 104 ft | 18 kts | 166° |
| 2026-04-27 14:15 | 27.17017 | 33.79554 | 107 ft | 18 kts | 165° |
| 2026-04-27 14:15 | 27.16895 | 33.79592 | 107 ft | 21 kts | 164° |
| 2026-04-27 14:16 | 27.16738 | 33.79638 | 104 ft | 24 kts | 166° |
| 2026-04-27 14:16 | 27.16576 | 33.79686 | 107 ft | 24 kts | 165° |
| 2026-04-27 14:16 | 27.16421 | 33.79726 | 111 ft | 21 kts | 182° |
| 2026-04-27 14:16 | 27.16357 | 33.79606 | 112 ft | 20 kts | 254° |
| 2026-04-27 14:17 | 27.16416 | 33.79534 | 113 ft | 14 kts | 345° |
| 2026-04-27 14:17 | 27.16545 | 33.79496 | 114 ft | 42 kts | 345° |
| 2026-04-27 14:17 | 27.17056 | 33.79347 | 109 ft | 107 kts | 345° |
| 2026-04-27 14:17 | 27.17950 | 33.79079 | 110 ft | 155 kts | 348° |
| 2026-04-27 14:18 | 27.19052 | 33.78752 | 449 ft | 172 kts | 347° |
| 2026-04-27 14:18 | 27.20254 | 33.78408 | 953 ft | 182 kts | 347° |
| 2026-04-27 14:18 | 27.21561 | 33.78062 | 1354 ft | 205 kts | 347° |
| 2026-04-27 14:18 | 27.23016 | 33.77699 | 1805 ft | 228 kts | 345° |
| 2026-04-27 14:19 | 27.24618 | 33.77294 | 2330 ft | 241 kts | 345° |
| 2026-04-27 14:19 | 27.26271 | 33.76871 | 3082 ft | 245 kts | 344° |
| 2026-04-27 14:19 | 27.27936 | 33.76441 | 3967 ft | 246 kts | 343° |
| 2026-04-27 14:19 | 27.29614 | 33.76000 | 4776 ft | 250 kts | 341° |
| 2026-04-27 14:20 | 27.31246 | 33.75352 | 5499 ft | 248 kts | 323° |
| 2026-04-27 14:20 | 27.32454 | 33.74002 | 6233 ft | 246 kts | 298° |
| 2026-04-27 14:20 | 27.32983 | 33.72183 | 6935 ft | 250 kts | 275° |
| 2026-04-27 14:20 | 27.32725 | 33.70232 | 7649 ft | 257 kts | 255° |
| 2026-04-27 14:21 | 27.32158 | 33.68316 | 8412 ft | 260 kts | 255° |
| 2026-04-27 14:21 | 27.31574 | 33.66360 | 9092 ft | 266 kts | 254° |
| 2026-04-27 14:21 | 27.30982 | 33.64376 | 9835 ft | 269 kts | 254° |
| 2026-04-27 14:21 | 27.30379 | 33.62342 | 10221 ft | 285 kts | 255° |
| 2026-04-27 14:22 | 27.29731 | 33.60139 | 10383 ft | 308 kts | 255° |
| 2026-04-27 14:22 | 27.29040 | 33.57786 | 10690 ft | 323 kts | 254° |
| 2026-04-27 14:22 | 27.28323 | 33.55365 | 11280 ft | 329 kts | 254° |
| 2026-04-27 14:22 | 27.27593 | 33.52916 | 11946 ft | 332 kts | 254° |
| 2026-04-27 14:23 | 27.26856 | 33.50441 | 12627 ft | 335 kts | 254° |
| 2026-04-27 14:23 | 27.26116 | 33.47948 | 13303 ft | 337 kts | 254° |
| 2026-04-27 14:23 | 27.25372 | 33.45436 | 13927 ft | 340 kts | 254° |
| 2026-04-27 14:23 | 27.24632 | 33.42932 | 14485 ft | 343 kts | 254° |
| 2026-04-27 14:24 | 27.23877 | 33.40377 | 15056 ft | 346 kts | 254° |
| 2026-04-27 14:24 | 27.23114 | 33.37792 | 15610 ft | 350 kts | 254° |
| 2026-04-27 14:24 | 27.22359 | 33.35184 | 16169 ft | 352 kts | 257° |
| 2026-04-27 14:24 | 27.21935 | 33.32476 | 16691 ft | 353 kts | 268° |
| 2026-04-27 14:25 | 27.22005 | 33.29720 | 17208 ft | 355 kts | 276° |
| 2026-04-27 14:25 | 27.22241 | 33.26942 | 17754 ft | 359 kts | 276° |
| 2026-04-27 14:25 | 27.22476 | 33.24136 | 18309 ft | 362 kts | 276° |
| 2026-04-27 14:25 | 27.22713 | 33.21309 | 18740 ft | 365 kts | 276° |
| 2026-04-27 14:26 | 27.22949 | 33.18460 | 19270 ft | 368 kts | 276° |
| 2026-04-27 14:26 | 27.23181 | 33.15591 | 19791 ft | 370 kts | 276° |
| 2026-04-27 14:26 | 27.23413 | 33.12707 | 20303 ft | 372 kts | 276° |
| 2026-04-27 14:26 | 27.23650 | 33.09807 | 20794 ft | 374 kts | 276° |
| 2026-04-27 14:27 | 27.23891 | 33.06886 | 21277 ft | 376 kts | 276° |
| 2026-04-27 14:27 | 27.24133 | 33.03947 | 21761 ft | 378 kts | 276° |
| 2026-04-27 14:27 | 27.24373 | 33.00997 | 22233 ft | 381 kts | 276° |
| 2026-04-27 14:27 | 27.24611 | 32.98022 | 22693 ft | 383 kts | 276° |
| 2026-04-27 14:28 | 27.24850 | 32.95029 | 23135 ft | 385 kts | 276° |
| 2026-04-27 14:28 | 27.25088 | 32.92024 | 23556 ft | 388 kts | 276° |
| 2026-04-27 14:28 | 27.25328 | 32.88997 | 23923 ft | 389 kts | 276° |
| 2026-04-27 14:28 | 27.25570 | 32.85963 | 24310 ft | 390 kts | 276° |
| 2026-04-27 14:29 | 27.25811 | 32.82930 | 24731 ft | 390 kts | 276° |
| 2026-04-27 14:29 | 27.26050 | 32.79889 | 25120 ft | 391 kts | 276° |
| 2026-04-27 14:29 | 27.26290 | 32.76850 | 25495 ft | 391 kts | 276° |
| 2026-04-27 14:29 | 27.26531 | 32.73800 | 25857 ft | 392 kts | 276° |
| 2026-04-27 14:30 | 27.26771 | 32.70741 | 26225 ft | 393 kts | 276° |
| 2026-04-27 14:30 | 27.27012 | 32.67678 | 26580 ft | 394 kts | 276° |
| 2026-04-27 14:30 | 27.27253 | 32.64613 | 26914 ft | 395 kts | 276° |
| 2026-04-27 14:30 | 27.27494 | 32.61537 | 27258 ft | 396 kts | 276° |
| 2026-04-27 14:31 | 27.27736 | 32.58449 | 27557 ft | 397 kts | 276° |
| 2026-04-27 14:31 | 27.27976 | 32.55353 | 27859 ft | 398 kts | 276° |
| 2026-04-27 14:31 | 27.28217 | 32.52247 | 28157 ft | 399 kts | 276° |